Pottersville, Vermont
Current Conditions -  °F | °C
As of 6:54 AM on Tuesday 27 Jan 2015 (Local Time) from KMVL Reporting Station
Broken Clouds Broken Clouds  
Wind Chill: -19°   Ceiling: 11000
Heat Index: -12°   Visibility: 10mi
Dew Point: -19°   Wind: 8mph
Humidity: 56%   Direction: 360°N
Pressure: 29.91"   Gusts: NA
Location:  44.5359°N, 72.4842°W
Report Text: KMVL 271154Z AUTO 36007KT 10SM BKN110 M12/M19 A2991 RMK AO2 SLP146 T11221194 11117 21128 58007 TSNO
Loading
Personal Weather Stations






























Interactive Weather Map New forecast layout! Learn more

10-Day Weather Forecast

Advertisements
Track Severe Weather on mobile